createdAt,value
2022-08-05T00:01:27.841Z,22.43
2022-08-05T00:08:00.589Z,22.38
2022-08-05T00:13:52.952Z,22.53
2022-08-05T00:20:02.149Z,22.33
2022-08-05T00:26:05.883Z,22.42
2022-08-05T00:32:14.941Z,22.32
2022-08-05T00:38:17.921Z,22.14
2022-08-05T00:44:31.624Z,21.91
2022-08-05T00:50:33.769Z,21.84
2022-08-05T00:56:36.225Z,21.90
2022-08-05T01:02:40.300Z,22.20
2022-08-05T01:08:44.203Z,22.01
2022-08-05T01:15:36.323Z,22.06
2022-08-05T01:22:47.593Z,21.59
2022-08-05T01:29:05.415Z,21.74
2022-08-05T01:35:52.038Z,21.74
2022-08-05T01:41:37.905Z,21.48
2022-08-05T01:47:49.168Z,21.52
2022-08-05T01:53:59.133Z,21.34
2022-08-05T02:00:12.458Z,21.21
2022-08-05T02:06:37.048Z,21.40
2022-08-05T02:12:51.058Z,21.11
2022-08-05T02:19:20.293Z,21.01
2022-08-05T02:25:49.753Z,20.99
2022-08-05T02:31:57.632Z,20.94
2022-08-05T02:38:02.285Z,20.75
2022-08-05T02:44:13.239Z,20.74
2022-08-05T02:50:18.162Z,20.82
2022-08-05T02:56:20.806Z,20.74
2022-08-05T03:02:31.706Z,20.25
2022-08-05T03:08:34.906Z,20.27
2022-08-05T03:14:45.762Z,20.52
2022-08-05T03:20:48.852Z,20.40
2022-08-05T03:26:51.077Z,20.30
2022-08-05T03:32:54.318Z,20.16
2022-08-05T03:38:56.690Z,19.66
2022-08-05T03:44:59.716Z,19.50
2022-08-05T03:52:38.511Z,19.48
2022-08-05T03:58:10.738Z,19.32
2022-08-05T04:04:15.391Z,19.26
2022-08-05T04:10:23.465Z,19.43
2022-08-05T04:16:32.573Z,19.69
2022-08-05T04:22:34.722Z,19.54
2022-08-05T04:28:36.839Z,19.44
2022-08-05T04:34:52.918Z,19.42
2022-08-05T04:40:59.689Z,19.50
2022-08-05T04:47:09.848Z,19.69
2022-08-05T04:53:15.477Z,19.88
2022-08-05T04:59:24.027Z,19.78
2022-08-05T05:06:39.034Z,19.90
2022-08-05T05:12:02.053Z,19.90
2022-08-05T05:18:05.903Z,19.86
2022-08-05T05:24:09.103Z,19.80
2022-08-05T05:30:15.373Z,19.69
2022-08-05T05:36:18.473Z,19.64
2022-08-05T05:42:21.828Z,19.98
2022-08-05T05:48:27.483Z,20.13
2022-08-05T05:54:50.247Z,20.47
2022-08-05T06:00:51.915Z,20.57
2022-08-05T06:06:53.933Z,20.81
2022-08-05T06:12:55.937Z,21.05
2022-08-05T06:19:01.037Z,21.32
2022-08-05T06:25:25.223Z,21.54
2022-08-05T06:31:30.484Z,21.15
2022-08-05T06:37:56.224Z,21.13
2022-08-05T06:44:00.167Z,21.17
2022-08-05T06:50:05.295Z,21.61
2022-08-05T06:56:11.669Z,22.04
2022-08-05T07:02:29.433Z,21.96
2022-08-05T07:08:31.456Z,22.20
2022-08-05T07:14:53.930Z,22.34
2022-08-05T07:20:56.147Z,22.84
2022-08-05T07:26:59.168Z,23.01
2022-08-05T07:33:05.328Z,23.02
2022-08-05T07:39:24.678Z,22.98
2022-08-05T07:45:58.172Z,23.68
2022-08-05T07:51:55.455Z,24.08
2022-08-05T07:58:03.189Z,24.26
2022-08-05T08:04:05.942Z,25.10
2022-08-05T08:10:10.080Z,25.99
2022-08-05T08:16:35.650Z,26.02
2022-08-05T08:22:34.112Z,25.97
2022-08-05T08:28:59.495Z,26.03
2022-08-05T08:34:58.158Z,25.46
2022-08-05T08:41:03.940Z,26.18
2022-08-05T08:47:48.137Z,26.44
2022-08-05T08:53:38.192Z,27.04
2022-08-05T08:59:48.978Z,27.96
2022-08-05T09:06:08.020Z,27.79
2022-08-05T09:12:20.513Z,27.31
2022-08-05T09:18:32.105Z,27.24
2022-08-05T09:24:37.396Z,28.59
2022-08-05T09:30:57.148Z,28.58
2022-08-05T09:36:59.725Z,29.56
2022-08-05T09:43:08.487Z,30.23
2022-08-05T09:49:54.804Z,30.26
2022-08-05T09:55:56.964Z,28.80
2022-08-05T10:02:00.958Z,28.46
2022-08-05T10:08:36.481Z,27.37
2022-08-05T10:14:32.199Z,26.27
2022-08-05T10:20:41.862Z,25.67
2022-08-05T10:26:51.835Z,25.55
2022-08-05T10:33:02.574Z,25.45
2022-08-05T10:39:15.222Z,26.39
2022-08-05T10:45:40.152Z,27.11
2022-08-05T10:52:02.607Z,27.52
2022-08-05T10:58:14.997Z,27.19
2022-08-05T11:04:23.357Z,26.79
2022-08-05T11:10:29.143Z,26.09
2022-08-05T11:16:47.555Z,25.85
2022-08-05T11:22:58.009Z,24.91
2022-08-05T11:29:13.499Z,24.42
2022-08-05T11:36:07.740Z,24.35
2022-08-05T11:42:10.941Z,23.42
2022-08-05T11:48:20.421Z,22.25
2022-08-05T11:54:38.043Z,21.62
2022-08-05T12:00:41.442Z,20.90
2022-08-05T12:06:49.016Z,20.58
2022-08-05T12:12:59.179Z,20.08
2022-08-05T12:19:03.598Z,20.07
2022-08-05T12:25:10.300Z,19.76
2022-08-05T12:31:23.468Z,19.80
2022-08-05T12:37:35.940Z,19.58
2022-08-05T12:44:03.759Z,19.57
2022-08-05T12:50:17.477Z,19.29
2022-08-05T12:56:34.649Z,19.46
2022-08-05T13:02:40.102Z,19.99
2022-08-05T13:08:51.406Z,19.98
2022-08-05T13:15:05.643Z,19.89
2022-08-05T13:21:10.205Z,19.83
2022-08-05T13:27:38.134Z,19.60
2022-08-05T13:34:21.228Z,19.74
2022-08-05T13:40:15.788Z,19.75
2022-08-05T13:46:35.806Z,19.76
2022-08-05T13:52:39.833Z,19.85
2022-08-05T13:58:43.222Z,19.74
2022-08-05T14:05:11.465Z,19.55
2022-08-05T14:11:21.023Z,19.53
2022-08-05T14:17:26.441Z,19.85
2022-08-05T14:23:36.326Z,20.23
2022-08-05T14:29:39.252Z,21.12
2022-08-05T14:35:51.578Z,21.16
2022-08-05T14:42:19.279Z,21.10
2022-08-05T14:48:32.669Z,21.13
2022-08-05T14:54:36.138Z,21.29
2022-08-05T15:00:58.256Z,21.44
2022-08-05T15:07:01.891Z,21.28
2022-08-05T15:13:05.423Z,21.32
2022-08-05T15:19:23.609Z,21.37
2022-08-05T15:25:41.235Z,21.18
2022-08-05T15:31:52.870Z,21.29
2022-08-05T15:38:33.390Z,21.19
2022-08-05T15:44:17.405Z,21.36
2022-08-05T15:50:19.914Z,21.63
2022-08-05T15:56:27.139Z,22.13
2022-08-05T16:02:33.206Z,22.32
2022-08-05T16:08:36.074Z,23.89
2022-08-05T16:14:38.215Z,26.13
2022-08-05T16:20:40.198Z,26.28
2022-08-05T16:26:57.700Z,27.81
2022-08-05T16:33:01.073Z,25.90
2022-08-05T16:39:03.625Z,25.35
2022-08-05T16:46:03.929Z,25.36
2022-08-05T16:51:30.850Z,26.22
2022-08-05T16:57:59.851Z,27.66
2022-08-05T17:04:02.900Z,28.15
2022-08-05T17:10:05.367Z,26.69
2022-08-05T17:16:28.076Z,27.21
2022-08-05T17:22:30.272Z,27.81
2022-08-05T17:28:32.489Z,27.80
2022-08-05T17:34:34.887Z,28.23
2022-08-05T17:40:37.205Z,28.22
2022-08-05T17:46:42.046Z,28.35
2022-08-05T17:52:52.987Z,29.03
2022-08-05T17:58:57.030Z,27.87
2022-08-05T18:05:02.861Z,26.65
2022-08-05T18:11:08.464Z,25.47
2022-08-05T18:17:59.492Z,24.07
2022-08-05T18:23:45.822Z,22.89
2022-08-05T18:29:54.061Z,22.10
2022-08-05T18:36:04.894Z,21.78
2022-08-05T18:42:11.394Z,21.37
2022-08-05T18:48:30.636Z,20.84
2022-08-05T18:54:33.700Z,20.23
2022-08-05T19:00:36.457Z,20.08
2022-08-05T19:06:45.221Z,19.73
2022-08-05T19:12:48.378Z,19.58
2022-08-05T19:18:50.382Z,19.60
2022-08-05T19:24:54.147Z,19.68
2022-08-05T19:30:58.427Z,19.61
2022-08-05T19:37:00.779Z,19.25
2022-08-05T19:43:05.358Z,19.23
2022-08-05T19:49:12.530Z,18.90
2022-08-05T19:56:14.124Z,18.78
2022-08-05T20:01:40.792Z,18.91
2022-08-05T20:07:48.215Z,18.47
2022-08-05T20:13:58.883Z,18.25
2022-08-05T20:20:14.518Z,18.04
2022-08-05T20:26:17.440Z,17.95
2022-08-05T20:32:19.878Z,17.89
2022-08-05T20:38:27.321Z,17.83
2022-08-05T20:44:31.220Z,17.45
2022-08-05T20:50:33.527Z,17.27
2022-08-05T20:56:41.642Z,17.08
2022-08-05T21:02:51.639Z,16.97
2022-08-05T21:08:54.188Z,17.06
2022-08-05T21:14:56.139Z,16.63
2022-08-05T21:21:00.717Z,16.64
2022-08-05T21:27:02.718Z,16.57
2022-08-05T21:33:07.261Z,16.63
2022-08-05T21:39:14.263Z,16.15
2022-08-05T21:45:24.718Z,15.97
2022-08-05T21:52:22.082Z,15.94
2022-08-05T21:57:50.505Z,16.08
2022-08-05T22:03:55.494Z,15.82
2022-08-05T22:09:58.249Z,16.03
2022-08-05T22:16:05.105Z,15.41
2022-08-05T22:22:09.855Z,15.48
2022-08-05T22:28:12.210Z,15.11
2022-08-05T22:34:25.570Z,15.01
2022-08-05T22:40:31.142Z,14.91
2022-08-05T22:46:33.317Z,14.84
2022-08-05T22:52:35.922Z,14.94
2022-08-05T22:58:38.189Z,14.86
2022-08-05T23:04:52.057Z,14.49
2022-08-05T23:10:56.100Z,14.28
2022-08-05T23:17:16.979Z,14.09
2022-08-05T23:23:26.100Z,13.85
2022-08-05T23:29:34.455Z,13.78
2022-08-05T23:35:36.841Z,13.61
2022-08-05T23:41:40.916Z,13.53
2022-08-05T23:47:47.729Z,13.48
2022-08-05T23:53:50.186Z,13.47
